createdAt,value
2023-01-30T00:02:00.910Z,72.60
2023-01-30T00:05:02.611Z,70.50
2023-01-30T00:11:11.748Z,70.40
2023-01-30T00:14:13.484Z,72.50
2023-01-30T00:17:15.087Z,70.30
2023-01-30T00:20:17.413Z,74.10
2023-01-30T00:23:19.229Z,76.20
2023-01-30T00:26:20.893Z,73.20
2023-01-30T00:29:22.544Z,70.10
2023-01-30T00:32:24.181Z,67.60
2023-01-30T00:35:26.258Z,73.20
2023-01-30T00:38:27.863Z,68.40
2023-01-30T00:44:31.183Z,73.50
2023-01-30T00:47:32.824Z,64.40
2023-01-30T00:50:34.340Z,68.20
2023-01-30T00:53:35.999Z,63.70
2023-01-30T00:59:39.509Z,67.50
2023-01-30T01:02:41.213Z,71.20
2023-01-30T01:08:45.220Z,71.40
2023-01-30T01:11:46.816Z,69.70
2023-01-30T01:17:50.293Z,72.20
2023-01-30T01:20:52.061Z,74.30
2023-01-30T01:23:56.405Z,75.40
2023-01-30T01:26:58.607Z,71.90
2023-01-30T01:30:02.284Z,75.00
2023-01-30T01:33:04.494Z,67.90
2023-01-30T01:36:07.148Z,70.40
2023-01-30T01:39:08.906Z,72.80
2023-01-30T01:42:11.414Z,71.20
2023-01-30T01:45:20.158Z,68.70
2023-01-30T01:48:32.111Z,70.00
2023-01-30T01:51:41.853Z,67.30
2023-01-30T01:54:47.351Z,65.40
2023-01-30T01:57:53.531Z,66.10
2023-01-30T02:00:57.667Z,70.30
2023-01-30T02:04:03.739Z,69.00
2023-01-30T02:07:05.342Z,72.00
2023-01-30T02:10:09.987Z,66.20
2023-01-30T02:13:11.607Z,70.70
2023-01-30T02:19:50.520Z,69.40
2023-01-30T02:23:13.515Z,71.10
2023-01-30T02:26:34.101Z,69.90
2023-01-30T02:30:04.235Z,72.30
2023-01-30T02:33:13.636Z,67.00
2023-01-30T02:36:17.767Z,73.70
2023-01-30T02:39:34.474Z,72.20
2023-01-30T02:43:04.930Z,76.50
2023-01-30T02:46:20.513Z,73.00
2023-01-30T02:49:32.075Z,69.30
2023-01-30T02:52:34.073Z,72.50
2023-01-30T02:55:35.802Z,73.20
2023-01-30T02:58:43.121Z,67.60
2023-01-30T03:01:53.805Z,72.20
2023-01-30T03:05:01.431Z,71.80
2023-01-30T03:08:24.356Z,74.70
2023-01-30T03:11:32.790Z,77.80
2023-01-30T03:15:02.758Z,79.10
2023-01-30T03:18:04.520Z,80.20
2023-01-30T03:21:06.917Z,82.60
2023-01-30T03:24:08.568Z,82.30
2023-01-30T03:27:12.413Z,82.80
2023-01-30T03:30:14.489Z,84.90
2023-01-30T03:36:17.602Z,82.80
2023-01-30T03:39:19.309Z,79.70
2023-01-30T03:42:21.316Z,77.30
2023-01-30T03:45:22.970Z,73.00
2023-01-30T03:48:24.604Z,72.60
2023-01-30T03:51:26.273Z,71.60
2023-01-30T03:54:27.853Z,63.50
2023-01-30T03:57:29.590Z,65.60
2023-01-30T04:00:31.183Z,59.70
2023-01-30T04:03:33.733Z,65.10
2023-01-30T04:06:36.673Z,57.90
2023-01-30T04:09:38.460Z,61.90
2023-01-30T04:12:40.021Z,64.80
2023-01-30T04:15:41.601Z,60.00
2023-01-30T04:18:43.316Z,66.10
2023-01-30T04:21:45.007Z,65.20
2023-01-30T04:24:46.652Z,67.30
2023-01-30T04:27:48.217Z,67.30
2023-01-30T04:30:50.009Z,66.40
2023-01-30T04:36:53.196Z,64.00
2023-01-30T04:39:54.794Z,70.30
2023-01-30T04:42:56.333Z,70.50
2023-01-30T04:45:58.431Z,70.60
2023-01-30T04:49:00.044Z,71.20
2023-01-30T04:52:01.612Z,68.80
2023-01-30T04:55:03.300Z,69.60
2023-01-30T04:58:04.872Z,72.00
2023-01-30T05:01:21.425Z,69.10
2023-01-30T05:04:23.024Z,74.70
2023-01-30T05:07:24.799Z,71.60
2023-01-30T05:10:26.444Z,77.20
2023-01-30T05:13:27.992Z,73.60
2023-01-30T05:16:29.737Z,69.30
2023-01-30T05:19:31.239Z,66.50
2023-01-30T05:22:33.201Z,69.50
2023-01-30T05:28:36.258Z,78.80
2023-01-30T05:31:37.995Z,74.00
2023-01-30T05:34:39.586Z,74.50
2023-01-30T05:37:41.272Z,72.70
2023-01-30T05:40:43.071Z,73.60
2023-01-30T05:46:46.395Z,74.80
2023-01-30T05:49:48.116Z,65.50
2023-01-30T05:52:49.800Z,69.00
2023-01-30T05:55:55.862Z,71.00
2023-01-30T05:58:57.489Z,65.00
2023-01-30T06:01:59.071Z,68.80
2023-01-30T06:05:00.689Z,72.30
2023-01-30T06:08:02.244Z,78.20
2023-01-30T06:11:09.886Z,76.50
2023-01-30T06:14:11.564Z,78.50
2023-01-30T06:17:13.285Z,74.30
2023-01-30T06:20:14.835Z,71.90
2023-01-30T06:23:17.275Z,66.50
2023-01-30T06:26:19.022Z,60.80
2023-01-30T06:32:23.217Z,61.10
2023-01-30T06:35:24.873Z,56.70
2023-01-30T06:41:28.053Z,49.50
2023-01-30T06:44:29.807Z,49.00
2023-01-30T06:47:31.311Z,51.90
2023-01-30T06:50:32.890Z,46.60
2023-01-30T06:53:34.483Z,47.10
2023-01-30T06:56:36.219Z,44.90
2023-01-30T06:59:37.921Z,42.50
2023-01-30T07:02:40.127Z,46.50
2023-01-30T07:05:43.088Z,41.10
2023-01-30T07:08:44.675Z,41.80
2023-01-30T07:11:46.258Z,43.60
2023-01-30T07:17:49.623Z,45.50
2023-01-30T07:20:51.353Z,47.20
2023-01-30T07:23:53.264Z,46.30
2023-01-30T07:26:55.064Z,42.30
2023-01-30T07:29:56.753Z,40.20
2023-01-30T07:32:59.856Z,41.70
2023-01-30T07:36:01.429Z,36.20
2023-01-30T07:39:03.798Z,34.40
2023-01-30T07:42:05.855Z,34.30
2023-01-30T07:45:08.391Z,35.30
2023-01-30T07:48:11.993Z,37.80
2023-01-30T07:51:13.872Z,35.90
2023-01-30T07:57:17.174Z,41.90
2023-01-30T08:00:19.332Z,41.70
2023-01-30T08:03:21.181Z,37.90
2023-01-30T08:06:22.841Z,36.00
2023-01-30T08:09:24.427Z,37.90
2023-01-30T08:12:26.145Z,35.80
2023-01-30T08:15:27.814Z,32.30
2023-01-30T08:18:30.644Z,36.70
2023-01-30T08:21:32.820Z,35.50
2023-01-30T08:24:34.390Z,35.70
2023-01-30T08:30:37.931Z,36.90
2023-01-30T08:33:39.767Z,35.90
2023-01-30T08:36:41.516Z,45.30
2023-01-30T08:39:43.005Z,38.60
2023-01-30T08:42:45.189Z,34.90
2023-01-30T08:45:46.823Z,35.70
2023-01-30T08:48:50.270Z,34.80
2023-01-30T08:51:52.135Z,33.10
2023-01-30T08:57:56.962Z,35.90
2023-01-30T09:00:58.601Z,35.50
2023-01-30T09:04:00.258Z,32.50
2023-01-30T09:07:01.904Z,35.00
2023-01-30T09:10:04.179Z,29.00
2023-01-30T09:13:09.111Z,33.80
2023-01-30T09:16:11.459Z,31.00
2023-01-30T09:19:13.278Z,31.20
2023-01-30T09:25:16.445Z,30.80
2023-01-30T09:28:18.120Z,29.20
2023-01-30T09:31:19.962Z,35.10
2023-01-30T09:34:22.365Z,29.80
2023-01-30T09:37:24.475Z,31.40
2023-01-30T09:40:31.881Z,29.00
2023-01-30T09:44:08.588Z,32.70
2023-01-30T09:47:38.720Z,30.80
2023-01-30T09:51:02.239Z,28.70
2023-01-30T09:54:12.921Z,30.30
2023-01-30T09:57:22.473Z,29.30
2023-01-30T10:00:38.599Z,30.10
2023-01-30T10:03:53.126Z,28.80
2023-01-30T10:07:13.025Z,28.50
2023-01-30T10:10:24.107Z,32.00
2023-01-30T10:13:33.851Z,29.00
2023-01-30T10:16:47.332Z,28.20
2023-01-30T10:20:18.175Z,31.60
2023-01-30T10:23:39.227Z,27.90
2023-01-30T10:26:41.764Z,27.70
2023-01-30T10:29:54.230Z,29.20
2023-01-30T10:33:03.064Z,33.10
2023-01-30T10:36:11.756Z,30.80
2023-01-30T10:39:54.281Z,31.30
2023-01-30T10:43:23.325Z,29.60
2023-01-30T10:46:35.524Z,33.30
2023-01-30T10:50:19.467Z,28.80
2023-01-30T10:53:28.980Z,29.60
2023-01-30T10:56:48.831Z,29.60
2023-01-30T10:59:55.570Z,29.70
2023-01-30T11:03:20.913Z,27.80
2023-01-30T11:06:24.505Z,29.80
2023-01-30T11:09:41.729Z,26.40
2023-01-30T11:12:43.317Z,30.40
2023-01-30T11:15:47.510Z,28.30
2023-01-30T11:22:14.360Z,29.30
2023-01-30T11:25:21.478Z,30.20
2023-01-30T11:28:25.067Z,29.90
2023-01-30T11:31:40.849Z,29.10
2023-01-30T11:34:44.093Z,29.50
2023-01-30T11:37:45.848Z,27.40
2023-01-30T11:40:47.671Z,28.80
2023-01-30T11:46:50.903Z,29.60
2023-01-30T11:50:03.706Z,29.60
2023-01-30T11:53:20.240Z,32.30
2023-01-30T11:56:33.271Z,30.80
2023-01-30T11:59:54.286Z,35.30
2023-01-30T12:02:57.008Z,29.60
2023-01-30T12:05:58.966Z,34.50
2023-01-30T12:09:01.108Z,30.00
2023-01-30T12:12:04.057Z,33.40
2023-01-30T12:15:15.311Z,31.40
2023-01-30T12:18:43.136Z,31.50
2023-01-30T12:22:00.075Z,35.40
2023-01-30T12:25:09.158Z,32.70
2023-01-30T12:28:37.766Z,34.20
2023-01-30T12:31:54.661Z,32.60
2023-01-30T12:34:56.195Z,35.70
2023-01-30T12:41:02.650Z,34.30
2023-01-30T12:44:24.269Z,36.20
2023-01-30T12:47:47.005Z,36.00
2023-01-30T12:51:21.298Z,36.10
2023-01-30T12:54:45.233Z,36.80
2023-01-30T12:58:03.653Z,35.50
2023-01-30T13:01:23.384Z,36.40
2023-01-30T13:04:56.132Z,39.50
2023-01-30T13:08:17.649Z,37.70
2023-01-30T13:12:04.089Z,37.00
2023-01-30T13:15:21.074Z,36.20
2023-01-30T13:18:35.476Z,39.20
2023-01-30T13:21:47.173Z,39.90
2023-01-30T13:24:58.544Z,40.40
2023-01-30T13:28:09.783Z,39.30
2023-01-30T13:31:17.258Z,37.00
2023-01-30T13:34:48.295Z,39.40
2023-01-30T13:37:51.271Z,38.60
2023-01-30T13:40:56.971Z,39.30
2023-01-30T13:43:59.005Z,40.80
2023-01-30T13:47:20.437Z,40.30
2023-01-30T13:50:34.398Z,38.70
2023-01-30T13:53:44.775Z,39.70
2023-01-30T13:56:51.604Z,39.60
2023-01-30T14:00:22.885Z,38.30
2023-01-30T14:03:32.566Z,38.50
2023-01-30T14:06:37.340Z,38.10
2023-01-30T14:10:08.765Z,35.70
2023-01-30T14:13:13.716Z,36.40
2023-01-30T14:16:15.313Z,34.70
2023-01-30T14:19:48.174Z,34.20
2023-01-30T14:23:01.115Z,34.50
2023-01-30T14:26:03.058Z,34.90
2023-01-30T14:29:07.585Z,36.40
2023-01-30T14:32:12.944Z,34.00
2023-01-30T14:35:20.990Z,34.80
2023-01-30T14:38:23.037Z,33.20
2023-01-30T14:45:05.966Z,34.10
2023-01-30T14:48:32.138Z,34.00
2023-01-30T14:51:37.184Z,35.00
2023-01-30T14:54:44.765Z,33.30
2023-01-30T14:57:55.115Z,36.90
2023-01-30T15:00:59.970Z,38.30
2023-01-30T15:04:03.623Z,37.10
2023-01-30T15:07:09.685Z,36.00
2023-01-30T15:10:27.752Z,33.10
2023-01-30T15:14:01.122Z,34.00
2023-01-30T15:17:05.510Z,32.70
2023-01-30T15:20:29.142Z,34.20
2023-01-30T15:24:15.916Z,34.20
2023-01-30T15:27:32.678Z,32.90
2023-01-30T15:30:52.666Z,32.10
2023-01-30T15:33:55.546Z,33.80
2023-01-30T15:36:57.566Z,31.70
2023-01-30T15:40:19.231Z,32.50
2023-01-30T15:43:58.954Z,32.30
2023-01-30T15:47:34.628Z,31.80
2023-01-30T15:50:36.910Z,30.40
2023-01-30T15:53:42.862Z,32.90
2023-01-30T15:56:48.685Z,34.00
2023-01-30T15:59:53.246Z,32.90
2023-01-30T16:02:55.541Z,32.20
2023-01-30T16:05:58.387Z,30.10
2023-01-30T16:09:06.502Z,29.80
2023-01-30T16:12:30.033Z,31.00
2023-01-30T16:15:40.203Z,34.10
2023-01-30T16:18:44.561Z,30.40
2023-01-30T16:21:46.483Z,32.20
2023-01-30T16:24:51.330Z,31.60
2023-01-30T16:27:53.288Z,31.40
2023-01-30T16:34:01.142Z,31.60
2023-01-30T16:37:07.064Z,36.80
2023-01-30T16:40:16.001Z,32.70
2023-01-30T16:43:20.050Z,33.90
2023-01-30T16:46:45.937Z,34.80
2023-01-30T16:49:49.442Z,36.60
2023-01-30T16:52:52.727Z,38.20
2023-01-30T16:55:56.375Z,39.10
2023-01-30T16:58:59.686Z,40.80
2023-01-30T17:02:03.153Z,41.80
2023-01-30T17:05:22.500Z,39.60
2023-01-30T17:08:33.359Z,39.00
2023-01-30T17:11:40.088Z,37.80
2023-01-30T17:14:41.815Z,35.80
2023-01-30T17:17:44.263Z,35.90
2023-01-30T17:20:45.862Z,37.20
2023-01-30T17:26:56.109Z,32.00
2023-01-30T17:29:57.990Z,33.70
2023-01-30T17:32:59.661Z,33.30
2023-01-30T17:36:04.644Z,32.00
2023-01-30T17:39:11.697Z,31.50
2023-01-30T17:42:14.546Z,30.70
2023-01-30T17:45:16.287Z,29.90
2023-01-30T17:51:19.389Z,32.70
2023-01-30T17:54:21.661Z,34.10
2023-01-30T17:57:23.400Z,31.20
2023-01-30T18:03:26.800Z,29.70
2023-01-30T18:06:28.470Z,30.10
2023-01-30T18:09:30.509Z,30.30
2023-01-30T18:12:32.046Z,28.30
2023-01-30T18:15:33.628Z,29.00
2023-01-30T18:18:35.327Z,28.20
2023-01-30T18:21:38.067Z,28.60
2023-01-30T18:24:39.658Z,29.60
2023-01-30T18:27:42.831Z,28.80
2023-01-30T18:30:44.594Z,29.00
2023-01-30T18:33:46.724Z,28.70
2023-01-30T18:36:48.546Z,30.00
2023-01-30T18:39:50.059Z,28.50
2023-01-30T18:42:51.782Z,29.40
2023-01-30T18:46:05.570Z,28.50
2023-01-30T18:49:07.223Z,27.30
2023-01-30T18:52:09.383Z,38.80
2023-01-30T18:58:12.498Z,25.50
2023-01-30T19:01:16.829Z,24.90
2023-01-30T19:04:18.647Z,24.90
2023-01-30T19:07:20.804Z,26.20
2023-01-30T19:13:24.038Z,25.90
2023-01-30T19:19:27.852Z,26.80
2023-01-30T19:25:31.136Z,24.20
2023-01-30T19:28:32.873Z,24.40
2023-01-30T19:31:34.521Z,23.50
2023-01-30T19:34:36.138Z,23.70
2023-01-30T19:37:37.778Z,22.90
2023-01-30T19:40:46.594Z,23.30
2023-01-30T19:43:48.153Z,26.30
2023-01-30T19:49:51.968Z,23.90
2023-01-30T19:52:53.559Z,24.00
2023-01-30T19:55:55.174Z,22.70
2023-01-30T19:58:58.834Z,25.50
2023-01-30T20:02:00.466Z,23.80
2023-01-30T20:05:02.110Z,23.40
2023-01-30T20:11:07.609Z,23.30
2023-01-30T20:14:10.030Z,26.20
2023-01-30T20:17:11.668Z,23.40
2023-01-30T20:20:13.351Z,27.50
2023-01-30T20:23:14.993Z,24.90
2023-01-30T20:26:20.277Z,24.20
2023-01-30T20:29:21.869Z,26.10
2023-01-30T20:32:23.515Z,23.40
2023-01-30T20:35:25.085Z,24.80
2023-01-30T20:38:29.986Z,26.70
2023-01-30T20:41:32.046Z,25.90
2023-01-30T20:44:33.793Z,25.90
2023-01-30T20:50:37.324Z,27.40
2023-01-30T20:56:49.083Z,26.90
2023-01-30T20:59:50.636Z,25.00
2023-01-30T21:02:52.327Z,24.40
2023-01-30T21:09:02.487Z,26.30
2023-01-30T21:12:04.464Z,25.50
2023-01-30T21:15:06.634Z,27.20
2023-01-30T21:18:08.412Z,26.40
2023-01-30T21:24:17.440Z,24.00
2023-01-30T21:27:19.076Z,25.40
2023-01-30T21:30:20.614Z,25.20
2023-01-30T21:33:22.190Z,25.60
2023-01-30T21:36:24.600Z,28.30
2023-01-30T21:39:26.377Z,26.60
2023-01-30T21:45:29.458Z,30.70
2023-01-30T21:48:31.077Z,28.90
2023-01-30T21:51:32.994Z,26.70
2023-01-30T21:54:34.546Z,28.20
2023-01-30T21:57:36.617Z,29.10
2023-01-30T22:00:38.246Z,27.80
2023-01-30T22:03:40.109Z,27.50
2023-01-30T22:06:42.622Z,28.40
2023-01-30T22:09:44.232Z,31.10
2023-01-30T22:12:45.931Z,28.50
2023-01-30T22:18:54.522Z,27.10
2023-01-30T22:21:56.315Z,28.90
2023-01-30T22:24:57.833Z,29.00
2023-01-30T22:27:59.392Z,30.40
2023-01-30T22:31:03.819Z,27.80
2023-01-30T22:34:06.413Z,26.60
2023-01-30T22:37:08.098Z,29.40
2023-01-30T22:40:10.497Z,26.00
2023-01-30T22:43:12.154Z,29.30
2023-01-30T22:52:17.550Z,30.10
2023-01-30T22:55:19.414Z,32.90
2023-01-30T22:58:21.180Z,31.40
2023-01-30T23:01:24.246Z,33.30
2023-01-30T23:04:25.951Z,33.30
2023-01-30T23:07:27.717Z,28.90
2023-01-30T23:10:29.296Z,32.90
2023-01-30T23:13:30.945Z,30.60
2023-01-30T23:16:34.180Z,32.20
2023-01-30T23:19:35.840Z,33.20
2023-01-30T23:22:37.845Z,32.80
2023-01-30T23:25:41.007Z,31.10
2023-01-30T23:28:42.643Z,32.40
2023-01-30T23:31:45.472Z,33.50
2023-01-30T23:34:48.218Z,31.30
2023-01-30T23:37:49.830Z,32.30
2023-01-30T23:40:51.483Z,33.20
2023-01-30T23:43:53.609Z,34.90
2023-01-30T23:46:55.284Z,31.70
2023-01-30T23:49:56.778Z,31.00
2023-01-30T23:52:58.381Z,34.30
2023-01-30T23:55:59.954Z,30.40
2023-01-30T23:59:02.091Z,30.50
